sensor_id;sensor_type;location;lat;lon;timestamp;pressure;altitude;pressure_sealevel;temperature;humidity
54920;BME280;63804;53.120;8.764;2023-01-19T00:00:02;99809.00;;;4.17;45.86
54920;BME280;63804;53.120;8.764;2023-01-19T00:02:28;99821.34;;;4.44;45.30
54920;BME280;63804;53.120;8.764;2023-01-19T00:05:01;99817.81;;;4.43;45.27
54920;BME280;63804;53.120;8.764;2023-01-19T00:07:29;99818.28;;;4.54;44.95
54920;BME280;63804;53.120;8.764;2023-01-19T00:09:55;99825.81;;;4.31;45.59
54920;BME280;63804;53.120;8.764;2023-01-19T00:12:21;99817.13;;;4.08;46.06
54920;BME280;63804;53.120;8.764;2023-01-19T00:14:46;99815.03;;;4.14;45.87
54920;BME280;63804;53.120;8.764;2023-01-19T00:17:12;99825.53;;;4.24;45.72
54920;BME280;63804;53.120;8.764;2023-01-19T00:19:38;99827.91;;;4.17;45.97
54920;BME280;63804;53.120;8.764;2023-01-19T00:22:04;99826.03;;;4.08;46.10
54920;BME280;63804;53.120;8.764;2023-01-19T00:24:32;99822.38;;;4.04;46.03
54920;BME280;63804;53.120;8.764;2023-01-19T00:26:58;99823.28;;;4.26;45.76
54920;BME280;63804;53.120;8.764;2023-01-19T00:29:24;99822.00;;;4.32;45.56
54920;BME280;63804;53.120;8.764;2023-01-19T00:31:50;99828.97;;;4.33;45.57
54920;BME280;63804;53.120;8.764;2023-01-19T00:34:16;99830.63;;;4.25;45.81
54920;BME280;63804;53.120;8.764;2023-01-19T00:36:42;99821.75;;;4.07;46.11
54920;BME280;63804;53.120;8.764;2023-01-19T00:39:08;99820.91;;;4.24;45.79
54920;BME280;63804;53.120;8.764;2023-01-19T00:41:33;99826.78;;;4.26;45.90
54920;BME280;63804;53.120;8.764;2023-01-19T00:44:17;99827.91;;;4.25;46.03
54920;BME280;63804;53.120;8.764;2023-01-19T00:46:43;99827.91;;;4.17;46.11
54920;BME280;63804;53.120;8.764;2023-01-19T00:49:09;99833.16;;;4.13;46.22
54920;BME280;63804;53.120;8.764;2023-01-19T00:51:35;99826.34;;;4.07;46.54
54920;BME280;63804;53.120;8.764;2023-01-19T00:54:01;99839.78;;;4.33;46.10
54920;BME280;63804;53.120;8.764;2023-01-19T00:56:32;99828.28;;;4.54;45.68
54920;BME280;63804;53.120;8.764;2023-01-19T00:58:59;99837.88;;;4.42;45.83
54920;BME280;63804;53.120;8.764;2023-01-19T01:01:25;99842.78;;;4.49;46.03
54920;BME280;63804;53.120;8.764;2023-01-19T01:03:51;99837.00;;;3.95;47.38
54920;BME280;63804;53.120;8.764;2023-01-19T01:06:19;99830.75;;;4.20;46.71
54920;BME280;63804;53.120;8.764;2023-01-19T01:08:45;99835.38;;;4.20;46.80
54920;BME280;63804;53.120;8.764;2023-01-19T01:11:11;99831.09;;;4.19;46.75
54920;BME280;63804;53.120;8.764;2023-01-19T01:13:36;99838.66;;;4.43;46.52
54920;BME280;63804;53.120;8.764;2023-01-19T01:16:02;99829.63;;;4.30;46.75
54920;BME280;63804;53.120;8.764;2023-01-19T01:18:28;99842.13;;;4.52;46.21
54920;BME280;63804;53.120;8.764;2023-01-19T01:21:05;99838.47;;;4.48;46.54
54920;BME280;63804;53.120;8.764;2023-01-19T01:23:31;99837.25;;;4.28;46.92
54920;BME280;63804;53.120;8.764;2023-01-19T01:25:57;99842.16;;;4.43;46.79
54920;BME280;63804;53.120;8.764;2023-01-19T01:28:23;99830.13;;;4.23;47.31
54920;BME280;63804;53.120;8.764;2023-01-19T01:30:53;99838.44;;;4.01;47.78
54920;BME280;63804;53.120;8.764;2023-01-19T01:33:19;99843.94;;;4.22;47.60
54920;BME280;63804;53.120;8.764;2023-01-19T01:35:47;99835.84;;;4.31;47.33
54920;BME280;63804;53.120;8.764;2023-01-19T01:38:12;99836.44;;;4.36;47.20
54920;BME280;63804;53.120;8.764;2023-01-19T01:40:38;99835.53;;;4.32;47.40
54920;BME280;63804;53.120;8.764;2023-01-19T01:43:13;99833.47;;;4.29;47.94
54920;BME280;63804;53.120;8.764;2023-01-19T01:45:39;99830.13;;;4.23;47.78
54920;BME280;63804;53.120;8.764;2023-01-19T01:48:19;99823.91;;;4.32;47.41
54920;BME280;63804;53.120;8.764;2023-01-19T01:50:49;99835.97;;;4.43;47.10
54920;BME280;63804;53.120;8.764;2023-01-19T01:53:34;99828.75;;;4.56;46.90
54920;BME280;63804;53.120;8.764;2023-01-19T01:56:05;99836.19;;;4.68;46.58
54920;BME280;63804;53.120;8.764;2023-01-19T01:58:32;99838.44;;;4.57;46.97
54920;BME280;63804;53.120;8.764;2023-01-19T02:00:58;99834.69;;;4.40;47.36
54920;BME280;63804;53.120;8.764;2023-01-19T02:03:43;99837.06;;;4.42;47.81
54920;BME280;63804;53.120;8.764;2023-01-19T02:06:10;99836.31;;;4.33;47.55
54920;BME280;63804;53.120;8.764;2023-01-19T02:08:41;99841.84;;;4.36;47.67
54920;BME280;63804;53.120;8.764;2023-01-19T02:11:27;99838.03;;;4.37;47.64
54920;BME280;63804;53.120;8.764;2023-01-19T02:14:12;99837.22;;;4.37;47.46
54920;BME280;63804;53.120;8.764;2023-01-19T02:16:38;99842.31;;;4.38;47.83
54920;BME280;63804;53.120;8.764;2023-01-19T02:19:06;99838.25;;;4.15;48.28
54920;BME280;63804;53.120;8.764;2023-01-19T02:24:19;99840.78;;;4.20;48.50
54920;BME280;63804;53.120;8.764;2023-01-19T02:26:46;99841.44;;;4.08;48.83
54920;BME280;63804;53.120;8.764;2023-01-19T02:29:22;99842.31;;;4.38;48.11
54920;BME280;63804;53.120;8.764;2023-01-19T02:31:49;99839.59;;;4.47;47.92
54920;BME280;63804;53.120;8.764;2023-01-19T02:34:18;99844.84;;;4.43;47.84
54920;BME280;63804;53.120;8.764;2023-01-19T02:39:22;99846.81;;;4.73;47.15
54920;BME280;63804;53.120;8.764;2023-01-19T02:41:57;99859.69;;;4.67;47.52
54920;BME280;63804;53.120;8.764;2023-01-19T02:44:25;99838.03;;;4.37;48.09
54920;BME280;63804;53.120;8.764;2023-01-19T02:46:54;99843.66;;;4.15;48.78
54920;BME280;63804;53.120;8.764;2023-01-19T02:49:20;99841.75;;;4.24;48.66
54920;BME280;63804;53.120;8.764;2023-01-19T02:51:46;99848.69;;;4.42;48.31
54920;BME280;63804;53.120;8.764;2023-01-19T02:59:47;99844.91;;;4.26;48.67
54920;BME280;63804;53.120;8.764;2023-01-19T03:05:20;99834.75;;;4.23;48.96
54920;BME280;63804;53.120;8.764;2023-01-19T03:08:40;99837.88;;;4.34;48.94
54920;BME280;63804;53.120;8.764;2023-01-19T03:11:03;99837.22;;;4.45;48.22
54920;BME280;63804;53.120;8.764;2023-01-19T03:18:37;99837.63;;;4.00;49.16
54920;BME280;63804;53.120;8.764;2023-01-19T03:21:05;99829.38;;;4.05;49.16
54920;BME280;63804;53.120;8.764;2023-01-19T03:23:33;99836.00;;;4.17;49.05
54920;BME280;63804;53.120;8.764;2023-01-19T03:26:01;99840.03;;;3.84;49.90
54920;BME280;63804;53.120;8.764;2023-01-19T03:28:31;99831.41;;;4.26;48.77
54920;BME280;63804;53.120;8.764;2023-01-19T03:31:02;99843.38;;;3.99;49.58
54920;BME280;63804;53.120;8.764;2023-01-19T03:33:31;99843.94;;;4.22;49.01
54920;BME280;63804;53.120;8.764;2023-01-19T03:36:03;99848.72;;;4.25;48.87
54920;BME280;63804;53.120;8.764;2023-01-19T03:38:34;99848.13;;;4.11;49.34
54920;BME280;63804;53.120;8.764;2023-01-19T03:41:05;99856.47;;;4.44;48.38
54920;BME280;63804;53.120;8.764;2023-01-19T03:43:32;99855.69;;;4.35;48.88
54920;BME280;63804;53.120;8.764;2023-01-19T03:45:59;99857.00;;;4.20;49.08
54920;BME280;63804;53.120;8.764;2023-01-19T03:48:27;99851.44;;;4.16;49.13
54920;BME280;63804;53.120;8.764;2023-01-19T03:50:54;99858.06;;;4.36;48.67
54920;BME280;63804;53.120;8.764;2023-01-19T03:53:20;99854.47;;;4.15;49.48
54920;BME280;63804;53.120;8.764;2023-01-19T03:55:49;99860.03;;;4.01;49.80
54920;BME280;63804;53.120;8.764;2023-01-19T03:58:16;99864.97;;;4.07;49.86
54920;BME280;63804;53.120;8.764;2023-01-19T04:00:42;99860.19;;;4.04;50.05
54920;BME280;63804;53.120;8.764;2023-01-19T04:03:28;99865.06;;;4.37;49.18
54920;BME280;63804;53.120;8.764;2023-01-19T04:05:55;99858.06;;;4.36;48.85
54920;BME280;63804;53.120;8.764;2023-01-19T04:08:21;99870.97;;;4.22;49.37
54920;BME280;63804;53.120;8.764;2023-01-19T04:10:47;99865.72;;;4.25;49.43
54920;BME280;63804;53.120;8.764;2023-01-19T04:13:13;99867.66;;;4.16;49.80
54920;BME280;63804;53.120;8.764;2023-01-19T04:15:38;99862.66;;;4.44;48.80
54920;BME280;63804;53.120;8.764;2023-01-19T04:18:05;99866.38;;;4.70;48.48
54920;BME280;63804;53.120;8.764;2023-01-19T04:20:31;99858.53;;;4.38;48.88
54920;BME280;63804;53.120;8.764;2023-01-19T04:22:59;99859.31;;;4.48;48.76
54920;BME280;63804;53.120;8.764;2023-01-19T04:25:25;99871.56;;;4.36;49.17
54920;BME280;63804;53.120;8.764;2023-01-19T04:27:51;99860.66;;;4.24;49.68
54920;BME280;63804;53.120;8.764;2023-01-19T04:30:18;99875.69;;;4.42;49.29
54920;BME280;63804;53.120;8.764;2023-01-19T04:32:44;99860.78;;;4.36;49.43
54920;BME280;63804;53.120;8.764;2023-01-19T04:35:10;99872.41;;;4.19;49.98
54920;BME280;63804;53.120;8.764;2023-01-19T04:37:36;99860.34;;;4.25;49.67
54920;BME280;63804;53.120;8.764;2023-01-19T04:40:02;99865.22;;;4.41;49.37
54920;BME280;63804;53.120;8.764;2023-01-19T04:42:28;99861.38;;;4.51;48.97
54920;BME280;63804;53.120;8.764;2023-01-19T04:45:01;99871.47;;;4.71;48.50
54920;BME280;63804;53.120;8.764;2023-01-19T04:47:26;99875.00;;;4.63;48.79
54920;BME280;63804;53.120;8.764;2023-01-19T04:49:52;99877.41;;;4.56;49.09
54920;BME280;63804;53.120;8.764;2023-01-19T04:52:18;99878.50;;;4.55;49.03
54920;BME280;63804;53.120;8.764;2023-01-19T04:54:44;99879.66;;;4.45;49.27
54920;BME280;63804;53.120;8.764;2023-01-19T04:57:09;99882.59;;;4.70;48.90
54920;BME280;63804;53.120;8.764;2023-01-19T04:59:35;99888.56;;;4.45;49.49
54920;BME280;63804;53.120;8.764;2023-01-19T05:02:01;99879.31;;;4.55;49.30
54920;BME280;63804;53.120;8.764;2023-01-19T05:04:27;99875.91;;;4.67;49.24
54920;BME280;63804;53.120;8.764;2023-01-19T05:06:52;99887.44;;;4.46;49.61
54920;BME280;63804;53.120;8.764;2023-01-19T05:09:18;99879.31;;;4.55;49.15
54920;BME280;63804;53.120;8.764;2023-01-19T05:11:44;99884.38;;;4.57;49.30
54920;BME280;63804;53.120;8.764;2023-01-19T05:14:10;99891.28;;;4.45;49.62
54920;BME280;63804;53.120;8.764;2023-01-19T05:16:36;99893.97;;;4.45;49.71
54920;BME280;63804;53.120;8.764;2023-01-19T05:19:02;99887.44;;;4.46;49.38
54920;BME280;63804;53.120;8.764;2023-01-19T05:21:28;99895.69;;;4.59;49.30
54920;BME280;63804;53.120;8.764;2023-01-19T05:23:54;99899.38;;;4.45;49.61
54920;BME280;63804;53.120;8.764;2023-01-19T05:26:20;99898.78;;;4.22;50.53
54920;BME280;63804;53.120;8.764;2023-01-19T05:28:46;99898.25;;;4.46;49.86
54920;BME280;63804;53.120;8.764;2023-01-19T05:31:12;99895.88;;;4.45;49.93
54920;BME280;63804;53.120;8.764;2023-01-19T05:33:37;99905.69;;;4.58;49.57
54920;BME280;63804;53.120;8.764;2023-01-19T05:36:03;99907.91;;;4.65;49.27
54920;BME280;63804;53.120;8.764;2023-01-19T05:38:29;99897.91;;;4.57;49.66
54920;BME280;63804;53.120;8.764;2023-01-19T05:40:56;99903.81;;;4.41;49.92
54920;BME280;63804;53.120;8.764;2023-01-19T05:43:23;99908.47;;;4.15;50.51
54920;BME280;63804;53.120;8.764;2023-01-19T05:45:50;99907.81;;;4.26;50.42
54920;BME280;63804;53.120;8.764;2023-01-19T05:48:23;99903.03;;;4.41;49.81
54920;BME280;63804;53.120;8.764;2023-01-19T05:50:49;99911.75;;;4.46;49.79
54920;BME280;63804;53.120;8.764;2023-01-19T05:53:15;99907.75;;;4.61;49.47
54920;BME280;63804;53.120;8.764;2023-01-19T05:55:41;99903.13;;;4.71;49.18
54920;BME280;63804;53.120;8.764;2023-01-19T05:58:07;99912.06;;;4.62;49.31
54920;BME280;63804;53.120;8.764;2023-01-19T06:00:33;99914.56;;;4.68;49.21
54920;BME280;63804;53.120;8.764;2023-01-19T06:02:59;99915.66;;;4.75;48.97
54920;BME280;63804;53.120;8.764;2023-01-19T06:05:26;99915.38;;;4.68;49.03
54920;BME280;63804;53.120;8.764;2023-01-19T06:07:55;99917.91;;;4.73;48.98
54920;BME280;63804;53.120;8.764;2023-01-19T06:10:21;99919.44;;;4.83;48.80
54920;BME280;63804;53.120;8.764;2023-01-19T06:12:47;99911.84;;;4.76;48.80
54920;BME280;63804;53.120;8.764;2023-01-19T06:15:13;99926.28;;;4.89;48.52
54920;BME280;63804;53.120;8.764;2023-01-19T06:17:40;99924.25;;;4.77;48.89
54920;BME280;63804;53.120;8.764;2023-01-19T06:20:06;99922.88;;;4.62;49.33
54920;BME280;63804;53.120;8.764;2023-01-19T06:22:32;99921.38;;;4.74;48.94
54920;BME280;63804;53.120;8.764;2023-01-19T06:24:57;99931.94;;;4.58;49.33
54920;BME280;63804;53.120;8.764;2023-01-19T06:27:23;99936.63;;;4.78;48.84
54920;BME280;63804;53.120;8.764;2023-01-19T06:29:49;99939.97;;;4.84;48.52
54920;BME280;63804;53.120;8.764;2023-01-19T06:32:15;99942.66;;;4.93;48.47
54920;BME280;63804;53.120;8.764;2023-01-19T06:34:41;99940.75;;;4.85;48.56
54920;BME280;63804;53.120;8.764;2023-01-19T06:37:09;99949.16;;;4.92;48.54
54920;BME280;63804;53.120;8.764;2023-01-19T06:39:38;99952.91;;;5.08;48.18
54920;BME280;63804;53.120;8.764;2023-01-19T06:42:06;99954.38;;;5.06;48.20
54920;BME280;63804;53.120;8.764;2023-01-19T06:44:32;99950.88;;;5.05;48.03
54920;BME280;63804;53.120;8.764;2023-01-19T06:46:58;99952.66;;;5.01;47.90
54920;BME280;63804;53.120;8.764;2023-01-19T06:49:24;99956.94;;;4.93;48.25
54920;BME280;63804;53.120;8.764;2023-01-19T06:51:50;99960.13;;;4.95;48.31
54920;BME280;63804;53.120;8.764;2023-01-19T06:54:15;99957.41;;;5.04;47.76
54920;BME280;63804;53.120;8.764;2023-01-19T06:56:41;99970.56;;;5.14;47.87
54920;BME280;63804;53.120;8.764;2023-01-19T06:59:07;99975.03;;;5.10;47.94
54920;BME280;63804;53.120;8.764;2023-01-19T07:01:34;99970.97;;;4.87;48.56
54920;BME280;63804;53.120;8.764;2023-01-19T07:04:00;99972.22;;;4.98;48.29
54920;BME280;63804;53.120;8.764;2023-01-19T07:06:26;99982.44;;;4.92;48.27
54920;BME280;63804;53.120;8.764;2023-01-19T07:08:53;99985.19;;;5.13;47.99
54920;BME280;63804;53.120;8.764;2023-01-19T07:11:19;99982.50;;;5.13;47.84
54920;BME280;63804;53.120;8.764;2023-01-19T07:13:45;99992.22;;;5.14;47.93
54920;BME280;63804;53.120;8.764;2023-01-19T07:16:16;99996.59;;;4.89;48.70
54920;BME280;63804;53.120;8.764;2023-01-19T07:18:42;99999.28;;;4.89;48.91
54920;BME280;63804;53.120;8.764;2023-01-19T07:21:08;100008.81;;;5.04;48.65
54920;BME280;63804;53.120;8.764;2023-01-19T07:23:34;100011.63;;;5.16;48.15
54920;BME280;63804;53.120;8.764;2023-01-19T07:26:00;100016.09;;;5.12;48.39
54920;BME280;63804;53.120;8.764;2023-01-19T07:28:27;100014.50;;;5.11;48.36
54920;BME280;63804;53.120;8.764;2023-01-19T07:30:54;100011.13;;;5.23;48.25
54920;BME280;63804;53.120;8.764;2023-01-19T07:33:22;100011.38;;;4.83;48.89
54920;BME280;63804;53.120;8.764;2023-01-19T07:35:52;100021.53;;;4.95;48.83
54920;BME280;63804;53.120;8.764;2023-01-19T07:38:18;100016.28;;;4.98;48.76
54920;BME280;63804;53.120;8.764;2023-01-19T07:40:44;100018.09;;;4.68;49.45
54920;BME280;63804;53.120;8.764;2023-01-19T07:43:14;100027.59;;;4.92;48.88
54920;BME280;63804;53.120;8.764;2023-01-19T07:45:40;100027.06;;;5.07;48.70
54920;BME280;63804;53.120;8.764;2023-01-19T07:48:06;100027.56;;;5.09;48.40
54920;BME280;63804;53.120;8.764;2023-01-19T07:50:32;100035.84;;;5.04;48.61
54920;BME280;63804;53.120;8.764;2023-01-19T07:53:04;100035.06;;;4.95;48.99
54920;BME280;63804;53.120;8.764;2023-01-19T07:55:31;100042.56;;;4.89;48.93
54920;BME280;63804;53.120;8.764;2023-01-19T07:57:56;100043.97;;;5.04;48.69
54920;BME280;63804;53.120;8.764;2023-01-19T08:00:22;100049.78;;;5.24;48.24
54920;BME280;63804;53.120;8.764;2023-01-19T08:02:50;100051.88;;;5.18;48.18
54920;BME280;63804;53.120;8.764;2023-01-19T08:05:17;100058.38;;;5.26;48.24
54920;BME280;63804;53.120;8.764;2023-01-19T08:07:44;100065.41;;;5.18;48.20
54920;BME280;63804;53.120;8.764;2023-01-19T08:10:12;100070.16;;;5.30;48.22
54920;BME280;63804;53.120;8.764;2023-01-19T08:12:38;100060.31;;;5.16;48.41
54920;BME280;63804;53.120;8.764;2023-01-19T08:15:05;100066.66;;;5.20;48.44
54920;BME280;63804;53.120;8.764;2023-01-19T08:17:31;100071.78;;;5.13;48.59
54920;BME280;63804;53.120;8.764;2023-01-19T08:19:57;100079.72;;;5.18;48.72
54920;BME280;63804;53.120;8.764;2023-01-19T08:22:22;100078.59;;;5.28;48.30
54920;BME280;63804;53.120;8.764;2023-01-19T08:24:48;100083.34;;;5.40;48.08
54920;BME280;63804;53.120;8.764;2023-01-19T08:27:14;100082.03;;;5.55;47.79
54920;BME280;63804;53.120;8.764;2023-01-19T08:29:40;100079.69;;;5.45;48.15
54920;BME280;63804;53.120;8.764;2023-01-19T08:32:05;100082.25;;;5.41;48.15
54920;BME280;63804;53.120;8.764;2023-01-19T08:34:31;100089.59;;;5.14;48.63
54920;BME280;63804;53.120;8.764;2023-01-19T08:36:57;100088.47;;;5.15;48.78
54920;BME280;63804;53.120;8.764;2023-01-19T08:39:32;100079.72;;;5.36;48.53
54920;BME280;63804;53.120;8.764;2023-01-19T08:41:58;100080.50;;;5.36;48.39
54920;BME280;63804;53.120;8.764;2023-01-19T08:44:26;100083.97;;;5.46;48.05
54920;BME280;63804;53.120;8.764;2023-01-19T08:46:51;100089.41;;;5.37;48.24
54920;BME280;63804;53.120;8.764;2023-01-19T08:49:17;100097.84;;;5.44;48.32
54920;BME280;63804;53.120;8.764;2023-01-19T08:51:43;100099.59;;;5.40;48.56
54920;BME280;63804;53.120;8.764;2023-01-19T08:54:12;100097.06;;;5.35;48.64
54920;BME280;63804;53.120;8.764;2023-01-19T08:56:38;100097.25;;;4.95;49.42
54920;BME280;63804;53.120;8.764;2023-01-19T08:59:04;100095.94;;;5.18;49.11
54920;BME280;63804;53.120;8.764;2023-01-19T09:01:29;100105.78;;;5.49;48.26
54920;BME280;63804;53.120;8.764;2023-01-19T09:03:55;100108.91;;;5.60;48.21
54920;BME280;63804;53.120;8.764;2023-01-19T09:06:21;100110.97;;;5.63;48.01
54920;BME280;63804;53.120;8.764;2023-01-19T09:08:53;100117.53;;;5.53;48.29
54920;BME280;63804;53.120;8.764;2023-01-19T09:11:19;100119.59;;;5.56;48.16
54920;BME280;63804;53.120;8.764;2023-01-19T09:13:45;100121.06;;;5.45;48.30
54920;BME280;63804;53.120;8.764;2023-01-19T09:16:11;100127.94;;;5.43;48.52
54920;BME280;63804;53.120;8.764;2023-01-19T09:18:37;100133.78;;;5.53;48.18
54920;BME280;63804;53.120;8.764;2023-01-19T09:21:03;100129.03;;;5.42;48.64
54920;BME280;63804;53.120;8.764;2023-01-19T09:23:29;100142.88;;;5.57;48.20
54920;BME280;63804;53.120;8.764;2023-01-19T09:25:58;100138.06;;;5.63;48.07
54920;BME280;63804;53.120;8.764;2023-01-19T09:28:24;100136.31;;;5.59;48.13
54920;BME280;63804;53.120;8.764;2023-01-19T09:30:49;100140.34;;;5.52;48.41
54920;BME280;63804;53.120;8.764;2023-01-19T09:33:17;100145.41;;;5.63;48.16
54920;BME280;63804;53.120;8.764;2023-01-19T09:35:45;100149.38;;;5.56;48.44
54920;BME280;63804;53.120;8.764;2023-01-19T09:38:12;100150.81;;;5.54;48.52
54920;BME280;63804;53.120;8.764;2023-01-19T09:40:46;100153.97;;;5.65;48.21
54920;BME280;63804;53.120;8.764;2023-01-19T09:43:32;100168.44;;;5.69;48.14
54920;BME280;63804;53.120;8.764;2023-01-19T09:46:01;100172.28;;;5.68;48.23
54920;BME280;63804;53.120;8.764;2023-01-19T09:50:54;100165.94;;;5.55;48.48
54920;BME280;63804;53.120;8.764;2023-01-19T09:56:11;100179.63;;;5.59;48.43
54920;BME280;63804;53.120;8.764;2023-01-19T09:58:40;100179.59;;;5.67;48.25
54920;BME280;63804;53.120;8.764;2023-01-19T10:03:42;100180.25;;;5.73;48.27
54920;BME280;63804;53.120;8.764;2023-01-19T10:06:15;100187.53;;;5.81;48.00
54920;BME280;63804;53.120;8.764;2023-01-19T10:08:53;100188.88;;;5.57;48.70
54920;BME280;63804;53.120;8.764;2023-01-19T10:11:29;100190.94;;;5.69;48.36
54920;BME280;63804;53.120;8.764;2023-01-19T10:13:58;100193.59;;;5.78;48.48
54920;BME280;63804;53.120;8.764;2023-01-19T10:19:39;100190.94;;;5.69;48.77
54920;BME280;63804;53.120;8.764;2023-01-19T10:22:33;100193.31;;;5.71;48.85
54920;BME280;63804;53.120;8.764;2023-01-19T10:25:00;100195.34;;;5.74;48.50
54920;BME280;63804;53.120;8.764;2023-01-19T10:27:31;100195.19;;;5.79;48.69
54920;BME280;63804;53.120;8.764;2023-01-19T10:30:00;100196.47;;;5.73;48.77
54920;BME280;63804;53.120;8.764;2023-01-19T10:32:32;100200.09;;;5.86;48.43
54920;BME280;63804;53.120;8.764;2023-01-19T10:35:14;100189.75;;;5.79;48.64
54920;BME280;63804;53.120;8.764;2023-01-19T10:37:46;100199.31;;;5.85;48.66
54920;BME280;63804;53.120;8.764;2023-01-19T10:40:27;100200.25;;;5.89;48.71
54920;BME280;63804;53.120;8.764;2023-01-19T10:42:55;100205.50;;;5.94;48.62
54920;BME280;63804;53.120;8.764;2023-01-19T10:45:24;100203.66;;;5.78;49.04
54920;BME280;63804;53.120;8.764;2023-01-19T10:47:53;100210.03;;;5.73;49.07
54920;BME280;63804;53.120;8.764;2023-01-19T10:52:50;100218.03;;;6.08;48.54
54920;BME280;63804;53.120;8.764;2023-01-19T10:57:49;100218.69;;;6.05;48.65
54920;BME280;63804;53.120;8.764;2023-01-19T11:00:41;100213.91;;;6.02;48.71
54920;BME280;63804;53.120;8.764;2023-01-19T11:03:24;100209.59;;;6.09;48.67
54920;BME280;63804;53.120;8.764;2023-01-19T11:05:52;100219.09;;;6.16;48.48
54920;BME280;63804;53.120;8.764;2023-01-19T11:08:28;100224.66;;;6.19;48.53
54920;BME280;63804;53.120;8.764;2023-01-19T11:10:58;100218.09;;;6.29;48.15
54920;BME280;63804;53.120;8.764;2023-01-19T11:13:28;100229.59;;;6.26;48.49
54920;BME280;63804;53.120;8.764;2023-01-19T11:15:56;100230.88;;;6.28;48.49
54920;BME280;63804;53.120;8.764;2023-01-19T11:18:28;100228.34;;;6.23;48.65
54920;BME280;63804;53.120;8.764;2023-01-19T11:20:57;100221.88;;;6.07;49.05
54920;BME280;63804;53.120;8.764;2023-01-19T11:23:44;100226.78;;;6.13;49.13
54920;BME280;63804;53.120;8.764;2023-01-19T11:26:23;100225.19;;;6.12;49.08
54920;BME280;63804;53.120;8.764;2023-01-19T11:28:51;100233.56;;;6.28;48.79
54920;BME280;63804;53.120;8.764;2023-01-19T11:31:32;100232.75;;;6.37;48.86
54920;BME280;63804;53.120;8.764;2023-01-19T11:34:04;100230.31;;;6.44;48.48
54920;BME280;63804;53.120;8.764;2023-01-19T11:36:33;100231.41;;;6.52;48.41
54920;BME280;63804;53.120;8.764;2023-01-19T11:39:27;100229.84;;;6.42;48.94
54920;BME280;63804;53.120;8.764;2023-01-19T11:41:55;100248.16;;;6.45;48.74
54920;BME280;63804;53.120;8.764;2023-01-19T11:44:35;100237.94;;;6.50;48.62
54920;BME280;63804;53.120;8.764;2023-01-19T11:47:35;100245.78;;;6.43;48.61
54920;BME280;63804;53.120;8.764;2023-01-19T11:53:04;100246.81;;;6.60;48.55
54920;BME280;63804;53.120;8.764;2023-01-19T11:58:23;100245.16;;;6.67;48.45
54920;BME280;63804;53.120;8.764;2023-01-19T12:00:53;100247.69;;;6.73;48.30
54920;BME280;63804;53.120;8.764;2023-01-19T12:03:41;100252.41;;;6.93;48.18
54920;BME280;63804;53.120;8.764;2023-01-19T12:06:15;100254.91;;;6.98;48.01
54920;BME280;63804;53.120;8.764;2023-01-19T12:08:51;100252.41;;;6.93;48.45
54920;BME280;63804;53.120;8.764;2023-01-19T12:11:23;100251.94;;;6.91;48.22
54920;BME280;63804;53.120;8.764;2023-01-19T12:13:51;100251.88;;;7.00;48.23
54920;BME280;63804;53.120;8.764;2023-01-19T12:16:25;100243.94;;;6.95;48.06
54920;BME280;63804;53.120;8.764;2023-01-19T12:19:15;100242.94;;;6.91;48.16
54920;BME280;63804;53.120;8.764;2023-01-19T12:21:43;100251.16;;;6.82;48.31
54920;BME280;63804;53.120;8.764;2023-01-19T12:24:35;100256.84;;;6.89;47.94
54920;BME280;63804;53.120;8.764;2023-01-19T12:27:14;100254.31;;;6.84;48.07
54920;BME280;63804;53.120;8.764;2023-01-19T12:29:43;100255.59;;;6.86;47.99
54920;BME280;63804;53.120;8.764;2023-01-19T12:34:50;100263.41;;;6.88;47.76
54920;BME280;63804;53.120;8.764;2023-01-19T12:39:53;100260.84;;;6.92;47.56
54920;BME280;63804;53.120;8.764;2023-01-19T12:42:21;100266.28;;;6.92;47.64
54920;BME280;63804;53.120;8.764;2023-01-19T12:44:47;100268.94;;;7.00;47.39
54920;BME280;63804;53.120;8.764;2023-01-19T12:49:45;100271.44;;;7.05;47.32
54920;BME280;63804;53.120;8.764;2023-01-19T12:52:31;100275.97;;;7.01;47.11
54920;BME280;63804;53.120;8.764;2023-01-19T13:11:13;100271.59;;;7.30;46.01
54920;BME280;63804;53.120;8.764;2023-01-19T13:18:50;100272.59;;;7.47;45.53
54920;BME280;63804;53.120;8.764;2023-01-19T13:21:41;100270.31;;;7.49;44.79
54920;BME280;63804;53.120;8.764;2023-01-19T13:24:12;100265.88;;;7.44;45.15
54920;BME280;63804;53.120;8.764;2023-01-19T13:29:33;100278.88;;;7.38;45.00
54920;BME280;63804;53.120;8.764;2023-01-19T13:32:05;100273.84;;;7.28;45.16
54920;BME280;63804;53.120;8.764;2023-01-19T13:34:43;100280.13;;;7.41;44.71
54920;BME280;63804;53.120;8.764;2023-01-19T13:37:21;100292.91;;;7.40;43.54
54920;BME280;63804;53.120;8.764;2023-01-19T13:39:50;100290.59;;;7.30;43.83
54920;BME280;63804;53.120;8.764;2023-01-19T13:44:59;100306.47;;;7.19;42.93
54920;BME280;63804;53.120;8.764;2023-01-19T13:47:33;100310.91;;;7.03;42.27
54920;BME280;63804;53.120;8.764;2023-01-19T13:50:02;100322.69;;;7.07;42.20
54920;BME280;63804;53.120;8.764;2023-01-19T13:52:28;100325.78;;;6.97;42.21
54920;BME280;63804;53.120;8.764;2023-01-19T13:54:57;100329.22;;;7.06;42.05
54920;BME280;63804;53.120;8.764;2023-01-19T13:57:38;100321.09;;;7.06;42.05
54920;BME280;63804;53.120;8.764;2023-01-19T14:03:07;100332.63;;;7.24;40.34
54920;BME280;63804;53.120;8.764;2023-01-19T14:05:40;100331.72;;;7.20;40.91
54920;BME280;63804;53.120;8.764;2023-01-19T14:13:15;100349.38;;;7.26;40.58
54920;BME280;63804;53.120;8.764;2023-01-19T14:15:42;100346.31;;;7.36;40.95
54920;BME280;63804;53.120;8.764;2023-01-19T14:29:30;100364.34;;;7.11;40.19
54920;BME280;63804;53.120;8.764;2023-01-19T14:37:02;100385.50;;;6.88;40.77
54920;BME280;63804;53.120;8.764;2023-01-19T14:39:32;100387.06;;;6.89;40.68
54920;BME280;63804;53.120;8.764;2023-01-19T14:42:00;100386.59;;;6.87;40.61
54920;BME280;63804;53.120;8.764;2023-01-19T14:44:31;100383.25;;;6.90;40.65
54920;BME280;63804;53.120;8.764;2023-01-19T14:46:58;100391.38;;;6.99;40.28
54920;BME280;63804;53.120;8.764;2023-01-19T14:51:59;100407.50;;;6.95;40.23
54920;BME280;63804;53.120;8.764;2023-01-19T14:54:31;100406.22;;;7.01;40.25
54920;BME280;63804;53.120;8.764;2023-01-19T14:56:58;100410.09;;;6.92;40.53